sensor_id;sensor_type;location;lat;lon;timestamp;P1;durP1;ratioP1;P2;durP2;ratioP2
37284;SDS011;23172;53.550;9.964;2023-02-16T00:01:30;12.65;;;10.57;;
37284;SDS011;23172;53.550;9.964;2023-02-16T00:06:37;12.15;;;10.13;;
37284;SDS011;23172;53.550;9.964;2023-02-16T00:11:40;15.20;;;11.00;;
37284;SDS011;23172;53.550;9.964;2023-02-16T00:17:00;14.70;;;12.23;;
37284;SDS011;23172;53.550;9.964;2023-02-16T00:22:03;15.00;;;11.38;;
37284;SDS011;23172;53.550;9.964;2023-02-16T00:27:12;15.60;;;13.18;;
37284;SDS011;23172;53.550;9.964;2023-02-16T00:32:17;27.63;;;20.67;;
37284;SDS011;23172;53.550;9.964;2023-02-16T00:37:19;22.33;;;18.63;;
37284;SDS011;23172;53.550;9.964;2023-02-16T00:42:25;19.20;;;14.27;;
37284;SDS011;23172;53.550;9.964;2023-02-16T00:47:48;21.73;;;16.55;;
37284;SDS011;23172;53.550;9.964;2023-02-16T00:52:51;26.17;;;19.35;;
37284;SDS011;23172;53.550;9.964;2023-02-16T00:57:55;22.92;;;18.17;;
37284;SDS011;23172;53.550;9.964;2023-02-16T01:03:04;17.48;;;14.65;;
37284;SDS011;23172;53.550;9.964;2023-02-16T01:08:10;21.92;;;17.13;;
37284;SDS011;23172;53.550;9.964;2023-02-16T01:13:34;21.52;;;17.25;;
37284;SDS011;23172;53.550;9.964;2023-02-16T01:18:39;21.42;;;16.63;;
37284;SDS011;23172;53.550;9.964;2023-02-16T01:23:42;24.42;;;18.67;;
37284;SDS011;23172;53.550;9.964;2023-02-16T01:28:45;27.17;;;19.55;;
37284;SDS011;23172;53.550;9.964;2023-02-16T01:33:48;25.55;;;19.20;;
37284;SDS011;23172;53.550;9.964;2023-02-16T01:38:51;24.88;;;18.83;;
37284;SDS011;23172;53.550;9.964;2023-02-16T01:43:55;20.20;;;15.93;;
37284;SDS011;23172;53.550;9.964;2023-02-16T01:48:59;22.02;;;16.55;;
37284;SDS011;23172;53.550;9.964;2023-02-16T01:54:04;25.92;;;19.75;;
37284;SDS011;23172;53.550;9.964;2023-02-16T01:59:15;24.75;;;18.48;;
37284;SDS011;23172;53.550;9.964;2023-02-16T02:04:28;21.73;;;17.15;;
37284;SDS011;23172;53.550;9.964;2023-02-16T02:09:55;26.98;;;20.30;;
37284;SDS011;23172;53.550;9.964;2023-02-16T02:15:04;22.92;;;16.65;;
37284;SDS011;23172;53.550;9.964;2023-02-16T02:20:10;29.60;;;21.20;;
37284;SDS011;23172;53.550;9.964;2023-02-16T02:25:25;31.40;;;23.90;;
37284;SDS011;23172;53.550;9.964;2023-02-16T02:30:42;28.05;;;21.27;;
37284;SDS011;23172;53.550;9.964;2023-02-16T02:35:50;20.88;;;15.95;;
37284;SDS011;23172;53.550;9.964;2023-02-16T02:41:03;27.65;;;21.40;;
37284;SDS011;23172;53.550;9.964;2023-02-16T02:46:15;32.75;;;23.55;;
37284;SDS011;23172;53.550;9.964;2023-02-16T02:51:25;27.17;;;20.67;;
37284;SDS011;23172;53.550;9.964;2023-02-16T02:56:32;29.48;;;22.63;;
37284;SDS011;23172;53.550;9.964;2023-02-16T03:01:54;25.75;;;18.60;;
37284;SDS011;23172;53.550;9.964;2023-02-16T03:07:00;28.70;;;19.23;;
37284;SDS011;23172;53.550;9.964;2023-02-16T03:12:05;26.77;;;19.45;;
37284;SDS011;23172;53.550;9.964;2023-02-16T03:17:30;24.90;;;18.10;;
37284;SDS011;23172;53.550;9.964;2023-02-16T03:22:52;21.88;;;15.38;;
37284;SDS011;23172;53.550;9.964;2023-02-16T03:28:12;19.88;;;15.57;;
37284;SDS011;23172;53.550;9.964;2023-02-16T03:33:35;23.38;;;17.08;;
37284;SDS011;23172;53.550;9.964;2023-02-16T03:38:38;25.20;;;19.02;;
37284;SDS011;23172;53.550;9.964;2023-02-16T03:43:40;21.27;;;16.02;;
37284;SDS011;23172;53.550;9.964;2023-02-16T03:48:43;23.15;;;18.15;;
37284;SDS011;23172;53.550;9.964;2023-02-16T03:53:45;34.45;;;24.38;;
37284;SDS011;23172;53.550;9.964;2023-02-16T03:58:47;22.95;;;16.45;;
37284;SDS011;23172;53.550;9.964;2023-02-16T04:03:50;21.25;;;17.90;;
37284;SDS011;23172;53.550;9.964;2023-02-16T04:08:52;27.42;;;20.77;;
37284;SDS011;23172;53.550;9.964;2023-02-16T04:13:54;27.08;;;20.75;;
37284;SDS011;23172;53.550;9.964;2023-02-16T04:18:57;27.48;;;20.92;;
37284;SDS011;23172;53.550;9.964;2023-02-16T04:23:59;21.08;;;14.95;;
37284;SDS011;23172;53.550;9.964;2023-02-16T04:29:01;23.60;;;18.20;;
37284;SDS011;23172;53.550;9.964;2023-02-16T04:34:04;22.90;;;16.55;;
37284;SDS011;23172;53.550;9.964;2023-02-16T04:39:06;29.73;;;23.48;;
37284;SDS011;23172;53.550;9.964;2023-02-16T04:44:08;24.45;;;17.83;;
37284;SDS011;23172;53.550;9.964;2023-02-16T04:49:11;29.48;;;23.05;;
37284;SDS011;23172;53.550;9.964;2023-02-16T04:54:13;36.15;;;25.45;;
37284;SDS011;23172;53.550;9.964;2023-02-16T04:59:15;21.75;;;17.13;;
37284;SDS011;23172;53.550;9.964;2023-02-16T05:04:18;23.50;;;18.88;;
37284;SDS011;23172;53.550;9.964;2023-02-16T05:09:20;27.40;;;20.77;;
37284;SDS011;23172;53.550;9.964;2023-02-16T05:14:23;23.55;;;17.63;;
37284;SDS011;23172;53.550;9.964;2023-02-16T05:19:44;19.58;;;15.90;;
37284;SDS011;23172;53.550;9.964;2023-02-16T05:24:47;32.58;;;25.00;;
37284;SDS011;23172;53.550;9.964;2023-02-16T05:29:49;20.20;;;15.43;;
37284;SDS011;23172;53.550;9.964;2023-02-16T05:34:53;26.80;;;19.52;;
37284;SDS011;23172;53.550;9.964;2023-02-16T05:39:55;26.85;;;20.25;;
37284;SDS011;23172;53.550;9.964;2023-02-16T05:44:57;29.35;;;22.65;;
37284;SDS011;23172;53.550;9.964;2023-02-16T05:50:00;26.40;;;20.80;;
37284;SDS011;23172;53.550;9.964;2023-02-16T05:55:02;38.00;;;27.80;;
37284;SDS011;23172;53.550;9.964;2023-02-16T06:00:04;25.80;;;21.15;;
37284;SDS011;23172;53.550;9.964;2023-02-16T06:05:09;23.90;;;17.08;;
37284;SDS011;23172;53.550;9.964;2023-02-16T06:10:10;25.95;;;18.83;;
37284;SDS011;23172;53.550;9.964;2023-02-16T06:15:12;31.17;;;23.85;;
37284;SDS011;23172;53.550;9.964;2023-02-16T06:20:15;27.52;;;19.27;;
37284;SDS011;23172;53.550;9.964;2023-02-16T06:25:17;30.25;;;23.92;;
37284;SDS011;23172;53.550;9.964;2023-02-16T06:30:19;27.30;;;21.35;;
37284;SDS011;23172;53.550;9.964;2023-02-16T06:35:23;24.95;;;19.35;;
37284;SDS011;23172;53.550;9.964;2023-02-16T06:40:25;26.95;;;20.10;;
37284;SDS011;23172;53.550;9.964;2023-02-16T06:45:27;33.65;;;25.65;;
37284;SDS011;23172;53.550;9.964;2023-02-16T06:50:30;40.03;;;28.23;;
37284;SDS011;23172;53.550;9.964;2023-02-16T06:55:32;28.98;;;22.10;;
37284;SDS011;23172;53.550;9.964;2023-02-16T07:00:35;27.27;;;19.33;;
37284;SDS011;23172;53.550;9.964;2023-02-16T07:05:39;25.85;;;20.75;;
37284;SDS011;23172;53.550;9.964;2023-02-16T07:10:43;27.92;;;21.30;;
37284;SDS011;23172;53.550;9.964;2023-02-16T07:15:45;28.15;;;20.95;;
37284;SDS011;23172;53.550;9.964;2023-02-16T07:20:49;34.92;;;26.80;;
37284;SDS011;23172;53.550;9.964;2023-02-16T07:25:51;31.02;;;23.63;;
37284;SDS011;23172;53.550;9.964;2023-02-16T07:30:52;24.70;;;18.65;;
37284;SDS011;23172;53.550;9.964;2023-02-16T07:35:56;26.30;;;19.70;;
37284;SDS011;23172;53.550;9.964;2023-02-16T07:40:58;23.45;;;18.85;;
37284;SDS011;23172;53.550;9.964;2023-02-16T07:46:00;26.20;;;20.77;;
37284;SDS011;23172;53.550;9.964;2023-02-16T07:51:03;36.75;;;26.48;;
37284;SDS011;23172;53.550;9.964;2023-02-16T07:56:05;41.85;;;28.85;;
37284;SDS011;23172;53.550;9.964;2023-02-16T08:01:08;35.10;;;25.33;;
37284;SDS011;23172;53.550;9.964;2023-02-16T08:06:12;36.58;;;27.48;;
37284;SDS011;23172;53.550;9.964;2023-02-16T08:11:15;30.20;;;22.88;;
37284;SDS011;23172;53.550;9.964;2023-02-16T08:16:18;25.98;;;22.38;;
37284;SDS011;23172;53.550;9.964;2023-02-16T08:21:24;36.20;;;28.27;;
37284;SDS011;23172;53.550;9.964;2023-02-16T08:26:28;39.72;;;29.48;;
37284;SDS011;23172;53.550;9.964;2023-02-16T08:31:34;30.80;;;24.08;;
37284;SDS011;23172;53.550;9.964;2023-02-16T08:36:39;33.38;;;25.60;;
37284;SDS011;23172;53.550;9.964;2023-02-16T08:41:44;38.33;;;28.13;;
37284;SDS011;23172;53.550;9.964;2023-02-16T08:46:47;30.55;;;23.90;;
37284;SDS011;23172;53.550;9.964;2023-02-16T08:51:52;21.63;;;18.25;;
37284;SDS011;23172;53.550;9.964;2023-02-16T08:56:55;25.45;;;21.02;;
37284;SDS011;23172;53.550;9.964;2023-02-16T09:01:59;25.45;;;19.55;;
37284;SDS011;23172;53.550;9.964;2023-02-16T09:07:02;22.27;;;19.25;;
37284;SDS011;23172;53.550;9.964;2023-02-16T09:12:05;36.42;;;28.73;;
37284;SDS011;23172;53.550;9.964;2023-02-16T09:17:07;37.22;;;29.27;;
37284;SDS011;23172;53.550;9.964;2023-02-16T09:22:10;33.75;;;28.15;;
37284;SDS011;23172;53.550;9.964;2023-02-16T09:27:12;34.03;;;26.85;;
37284;SDS011;23172;53.550;9.964;2023-02-16T09:32:14;34.00;;;26.33;;
37284;SDS011;23172;53.550;9.964;2023-02-16T09:37:18;36.15;;;27.23;;
37284;SDS011;23172;53.550;9.964;2023-02-16T09:42:23;35.85;;;27.77;;
37284;SDS011;23172;53.550;9.964;2023-02-16T09:47:32;41.53;;;31.48;;
37284;SDS011;23172;53.550;9.964;2023-02-16T09:52:38;40.53;;;27.52;;
37284;SDS011;23172;53.550;9.964;2023-02-16T09:57:47;35.40;;;27.00;;
37284;SDS011;23172;53.550;9.964;2023-02-16T10:02:57;35.30;;;27.40;;
37284;SDS011;23172;53.550;9.964;2023-02-16T10:08:10;37.28;;;28.10;;
37284;SDS011;23172;53.550;9.964;2023-02-16T10:13:18;32.85;;;26.90;;
37284;SDS011;23172;53.550;9.964;2023-02-16T10:18:25;33.60;;;27.00;;
37284;SDS011;23172;53.550;9.964;2023-02-16T10:23:33;33.65;;;26.48;;
37284;SDS011;23172;53.550;9.964;2023-02-16T10:28:45;32.80;;;26.58;;
37284;SDS011;23172;53.550;9.964;2023-02-16T10:33:53;33.88;;;27.15;;
37284;SDS011;23172;53.550;9.964;2023-02-16T10:39:04;34.67;;;27.98;;
37284;SDS011;23172;53.550;9.964;2023-02-16T10:44:14;38.05;;;28.88;;
37284;SDS011;23172;53.550;9.964;2023-02-16T10:49:21;35.30;;;28.85;;
37284;SDS011;23172;53.550;9.964;2023-02-16T10:54:27;35.72;;;28.50;;
37284;SDS011;23172;53.550;9.964;2023-02-16T10:59:33;36.88;;;28.73;;
37284;SDS011;23172;53.550;9.964;2023-02-16T11:04:39;35.08;;;28.45;;
37284;SDS011;23172;53.550;9.964;2023-02-16T11:09:45;39.15;;;29.02;;
37284;SDS011;23172;53.550;9.964;2023-02-16T11:14:50;36.38;;;28.80;;
37284;SDS011;23172;53.550;9.964;2023-02-16T11:19:55;35.58;;;29.00;;
37284;SDS011;23172;53.550;9.964;2023-02-16T11:25:16;38.08;;;29.60;;
37284;SDS011;23172;53.550;9.964;2023-02-16T11:30:27;36.70;;;28.98;;
37284;SDS011;23172;53.550;9.964;2023-02-16T11:35:31;39.38;;;29.73;;
37284;SDS011;23172;53.550;9.964;2023-02-16T11:40:43;37.42;;;28.20;;
37284;SDS011;23172;53.550;9.964;2023-02-16T11:45:55;36.20;;;28.15;;
37284;SDS011;23172;53.550;9.964;2023-02-16T11:51:00;31.63;;;26.17;;
37284;SDS011;23172;53.550;9.964;2023-02-16T11:56:19;48.60;;;36.88;;
37284;SDS011;23172;53.550;9.964;2023-02-16T12:01:23;38.28;;;29.67;;
37284;SDS011;23172;53.550;9.964;2023-02-16T12:06:44;44.30;;;35.22;;
37284;SDS011;23172;53.550;9.964;2023-02-16T12:12:02;39.72;;;31.02;;
37284;SDS011;23172;53.550;9.964;2023-02-16T12:17:22;43.20;;;30.95;;
37284;SDS011;23172;53.550;9.964;2023-02-16T12:22:37;42.45;;;30.50;;
37284;SDS011;23172;53.550;9.964;2023-02-16T12:27:47;41.28;;;31.75;;
37284;SDS011;23172;53.550;9.964;2023-02-16T12:32:55;42.92;;;30.35;;
37284;SDS011;23172;53.550;9.964;2023-02-16T12:38:09;45.60;;;32.58;;
37284;SDS011;23172;53.550;9.964;2023-02-16T12:43:30;45.28;;;31.67;;
37284;SDS011;23172;53.550;9.964;2023-02-16T12:48:38;46.45;;;31.40;;
37284;SDS011;23172;53.550;9.964;2023-02-16T12:53:48;50.08;;;33.22;;
37284;SDS011;23172;53.550;9.964;2023-02-16T12:59:02;51.92;;;33.83;;
37284;SDS011;23172;53.550;9.964;2023-02-16T13:04:17;43.30;;;31.30;;
37284;SDS011;23172;53.550;9.964;2023-02-16T13:09:28;47.70;;;33.13;;
37284;SDS011;23172;53.550;9.964;2023-02-16T13:14:40;51.47;;;34.83;;
37284;SDS011;23172;53.550;9.964;2023-02-16T13:19:45;42.42;;;29.23;;
37284;SDS011;23172;53.550;9.964;2023-02-16T13:24:51;50.35;;;34.25;;
37284;SDS011;23172;53.550;9.964;2023-02-16T13:30:08;42.30;;;30.23;;
37284;SDS011;23172;53.550;9.964;2023-02-16T13:35:48;35.03;;;24.25;;
37284;SDS011;23172;53.550;9.964;2023-02-16T13:41:05;39.28;;;28.88;;
37284;SDS011;23172;53.550;9.964;2023-02-16T13:46:29;41.55;;;32.30;;
37284;SDS011;23172;53.550;9.964;2023-02-16T13:51:41;52.67;;;38.00;;
37284;SDS011;23172;53.550;9.964;2023-02-16T13:56:45;42.40;;;31.30;;
37284;SDS011;23172;53.550;9.964;2023-02-16T14:01:48;44.90;;;34.22;;
37284;SDS011;23172;53.550;9.964;2023-02-16T14:07:18;39.20;;;29.77;;
37284;SDS011;23172;53.550;9.964;2023-02-16T14:12:37;46.03;;;32.25;;
37284;SDS011;23172;53.550;9.964;2023-02-16T14:17:42;42.17;;;29.77;;
37284;SDS011;23172;53.550;9.964;2023-02-16T14:22:46;41.33;;;30.25;;
37284;SDS011;23172;53.550;9.964;2023-02-16T14:27:51;33.38;;;23.40;;
37284;SDS011;23172;53.550;9.964;2023-02-16T14:32:57;35.40;;;26.58;;
37284;SDS011;23172;53.550;9.964;2023-02-16T14:38:04;32.65;;;24.70;;
37284;SDS011;23172;53.550;9.964;2023-02-16T14:43:22;36.20;;;27.25;;
37284;SDS011;23172;53.550;9.964;2023-02-16T14:48:45;34.95;;;26.45;;
37284;SDS011;23172;53.550;9.964;2023-02-16T14:59:44;56.50;;;36.90;;
37284;SDS011;23172;53.550;9.964;2023-02-16T15:04:52;26.90;;;19.35;;
37284;SDS011;23172;53.550;9.964;2023-02-16T15:09:55;31.92;;;25.05;;
37284;SDS011;23172;53.550;9.964;2023-02-16T15:14:59;32.17;;;24.73;;
37284;SDS011;23172;53.550;9.964;2023-02-16T15:20:06;38.08;;;27.45;;
37284;SDS011;23172;53.550;9.964;2023-02-16T15:25:18;38.70;;;30.15;;
37284;SDS011;23172;53.550;9.964;2023-02-16T15:30:23;41.97;;;33.17;;
37284;SDS011;23172;53.550;9.964;2023-02-16T15:35:28;31.55;;;24.67;;
37284;SDS011;23172;53.550;9.964;2023-02-16T15:40:34;36.15;;;28.02;;
37284;SDS011;23172;53.550;9.964;2023-02-16T15:45:37;31.27;;;24.63;;
37284;SDS011;23172;53.550;9.964;2023-02-16T15:50:40;31.20;;;22.90;;
37284;SDS011;23172;53.550;9.964;2023-02-16T15:55:43;33.10;;;27.17;;
37284;SDS011;23172;53.550;9.964;2023-02-16T16:00:46;36.65;;;28.90;;
37284;SDS011;23172;53.550;9.964;2023-02-16T16:05:54;44.58;;;33.35;;
37284;SDS011;23172;53.550;9.964;2023-02-16T16:10:59;45.25;;;33.13;;
37284;SDS011;23172;53.550;9.964;2023-02-16T16:16:01;44.75;;;33.40;;
37284;SDS011;23172;53.550;9.964;2023-02-16T16:21:17;42.15;;;30.92;;
37284;SDS011;23172;53.550;9.964;2023-02-16T16:26:24;50.63;;;37.72;;
37284;SDS011;23172;53.550;9.964;2023-02-16T16:31:32;53.05;;;37.95;;
37284;SDS011;23172;53.550;9.964;2023-02-16T16:36:42;36.22;;;28.30;;
37284;SDS011;23172;53.550;9.964;2023-02-16T16:47:24;42.15;;;30.25;;
37284;SDS011;23172;53.550;9.964;2023-02-16T16:52:37;37.65;;;28.45;;
37284;SDS011;23172;53.550;9.964;2023-02-16T16:57:41;43.53;;;29.55;;
37284;SDS011;23172;53.550;9.964;2023-02-16T17:02:43;70.57;;;50.75;;
37284;SDS011;23172;53.550;9.964;2023-02-16T17:07:46;36.92;;;26.48;;
37284;SDS011;23172;53.550;9.964;2023-02-16T17:12:51;34.17;;;25.08;;
37284;SDS011;23172;53.550;9.964;2023-02-16T17:17:55;34.03;;;25.85;;
37284;SDS011;23172;53.550;9.964;2023-02-16T17:22:58;29.10;;;21.42;;
37284;SDS011;23172;53.550;9.964;2023-02-16T17:28:03;42.45;;;31.75;;
37284;SDS011;23172;53.550;9.964;2023-02-16T17:33:06;40.95;;;29.67;;
37284;SDS011;23172;53.550;9.964;2023-02-16T17:38:10;32.28;;;23.05;;
37284;SDS011;23172;53.550;9.964;2023-02-16T17:43:14;32.38;;;24.30;;
37284;SDS011;23172;53.550;9.964;2023-02-16T17:48:18;35.30;;;25.35;;
37284;SDS011;23172;53.550;9.964;2023-02-16T17:53:22;26.92;;;20.13;;
37284;SDS011;23172;53.550;9.964;2023-02-16T17:58:25;31.33;;;23.67;;
37284;SDS011;23172;53.550;9.964;2023-02-16T18:03:27;32.28;;;24.52;;
37284;SDS011;23172;53.550;9.964;2023-02-16T18:08:30;35.13;;;26.48;;
37284;SDS011;23172;53.550;9.964;2023-02-16T18:13:32;27.52;;;20.88;;
37284;SDS011;23172;53.550;9.964;2023-02-16T18:18:34;30.45;;;21.83;;
37284;SDS011;23172;53.550;9.964;2023-02-16T18:23:39;43.20;;;31.25;;
37284;SDS011;23172;53.550;9.964;2023-02-16T18:28:41;41.08;;;31.40;;
37284;SDS011;23172;53.550;9.964;2023-02-16T18:33:43;34.63;;;24.60;;
37284;SDS011;23172;53.550;9.964;2023-02-16T18:38:47;32.28;;;23.58;;
37284;SDS011;23172;53.550;9.964;2023-02-16T18:43:50;60.55;;;41.75;;
37284;SDS011;23172;53.550;9.964;2023-02-16T18:48:52;36.97;;;28.30;;
37284;SDS011;23172;53.550;9.964;2023-02-16T18:53:55;35.20;;;26.40;;
37284;SDS011;23172;53.550;9.964;2023-02-16T18:58:57;31.38;;;24.48;;
37284;SDS011;23172;53.550;9.964;2023-02-16T19:04:00;27.58;;;19.75;;
37284;SDS011;23172;53.550;9.964;2023-02-16T19:09:04;30.65;;;21.80;;
37284;SDS011;23172;53.550;9.964;2023-02-16T19:14:06;54.55;;;35.88;;
37284;SDS011;23172;53.550;9.964;2023-02-16T19:19:08;31.48;;;22.25;;
37284;SDS011;23172;53.550;9.964;2023-02-16T19:24:11;31.60;;;22.90;;
37284;SDS011;23172;53.550;9.964;2023-02-16T19:29:13;23.77;;;18.08;;
37284;SDS011;23172;53.550;9.964;2023-02-16T19:34:15;30.13;;;23.23;;
37284;SDS011;23172;53.550;9.964;2023-02-16T19:39:18;41.35;;;30.63;;
37284;SDS011;23172;53.550;9.964;2023-02-16T19:44:20;32.72;;;24.77;;
37284;SDS011;23172;53.550;9.964;2023-02-16T19:49:22;36.88;;;27.23;;
37284;SDS011;23172;53.550;9.964;2023-02-16T19:54:25;27.50;;;20.33;;
37284;SDS011;23172;53.550;9.964;2023-02-16T19:59:28;34.10;;;27.08;;
37284;SDS011;23172;53.550;9.964;2023-02-16T20:04:31;30.00;;;23.83;;
37284;SDS011;23172;53.550;9.964;2023-02-16T20:09:34;34.45;;;26.50;;
37284;SDS011;23172;53.550;9.964;2023-02-16T20:14:36;30.92;;;22.45;;
37284;SDS011;23172;53.550;9.964;2023-02-16T20:19:38;33.13;;;24.50;;
37284;SDS011;23172;53.550;9.964;2023-02-16T20:24:42;31.10;;;24.98;;
37284;SDS011;23172;53.550;9.964;2023-02-16T20:29:44;35.45;;;26.00;;
37284;SDS011;23172;53.550;9.964;2023-02-16T20:34:46;35.80;;;25.85;;
37284;SDS011;23172;53.550;9.964;2023-02-16T20:39:49;22.52;;;18.13;;
37284;SDS011;23172;53.550;9.964;2023-02-16T20:44:51;29.35;;;23.33;;
37284;SDS011;23172;53.550;9.964;2023-02-16T20:49:53;41.75;;;32.90;;
37284;SDS011;23172;53.550;9.964;2023-02-16T20:54:56;43.72;;;32.58;;
37284;SDS011;23172;53.550;9.964;2023-02-16T20:59:58;31.90;;;26.25;;
37284;SDS011;23172;53.550;9.964;2023-02-16T21:05:00;27.33;;;21.52;;
37284;SDS011;23172;53.550;9.964;2023-02-16T21:10:04;22.35;;;19.75;;
37284;SDS011;23172;53.550;9.964;2023-02-16T21:15:08;35.92;;;28.85;;
37284;SDS011;23172;53.550;9.964;2023-02-16T21:20:10;42.00;;;32.50;;
37284;SDS011;23172;53.550;9.964;2023-02-16T21:25:14;34.67;;;27.42;;
37284;SDS011;23172;53.550;9.964;2023-02-16T21:30:17;30.23;;;24.42;;
37284;SDS011;23172;53.550;9.964;2023-02-16T21:35:19;25.40;;;20.40;;
37284;SDS011;23172;53.550;9.964;2023-02-16T21:40:22;28.33;;;23.92;;
37284;SDS011;23172;53.550;9.964;2023-02-16T21:45:46;25.00;;;19.63;;
37284;SDS011;23172;53.550;9.964;2023-02-16T21:50:59;22.73;;;18.55;;
37284;SDS011;23172;53.550;9.964;2023-02-16T21:56:04;26.35;;;23.10;;
37284;SDS011;23172;53.550;9.964;2023-02-16T22:01:20;26.00;;;22.38;;
37284;SDS011;23172;53.550;9.964;2023-02-16T22:06:24;27.48;;;24.02;;
37284;SDS011;23172;53.550;9.964;2023-02-16T22:11:28;20.35;;;18.15;;
37284;SDS011;23172;53.550;9.964;2023-02-16T22:16:30;28.27;;;24.35;;
37284;SDS011;23172;53.550;9.964;2023-02-16T22:21:33;28.65;;;25.00;;
37284;SDS011;23172;53.550;9.964;2023-02-16T22:26:37;32.15;;;27.80;;
37284;SDS011;23172;53.550;9.964;2023-02-16T22:31:42;27.42;;;23.40;;
37284;SDS011;23172;53.550;9.964;2023-02-16T22:36:45;31.15;;;27.77;;
37284;SDS011;23172;53.550;9.964;2023-02-16T22:41:49;22.95;;;19.80;;
37284;SDS011;23172;53.550;9.964;2023-02-16T22:46:51;26.52;;;23.58;;
37284;SDS011;23172;53.550;9.964;2023-02-16T22:51:54;27.35;;;24.38;;
37284;SDS011;23172;53.550;9.964;2023-02-16T22:56:58;32.90;;;28.85;;
37284;SDS011;23172;53.550;9.964;2023-02-16T23:02:00;26.42;;;22.50;;
37284;SDS011;23172;53.550;9.964;2023-02-16T23:07:02;39.50;;;31.38;;
37284;SDS011;23172;53.550;9.964;2023-02-16T23:12:05;31.85;;;26.73;;
37284;SDS011;23172;53.550;9.964;2023-02-16T23:17:07;27.17;;;24.23;;
37284;SDS011;23172;53.550;9.964;2023-02-16T23:22:09;23.38;;;20.17;;
37284;SDS011;23172;53.550;9.964;2023-02-16T23:27:12;18.08;;;16.17;;
37284;SDS011;23172;53.550;9.964;2023-02-16T23:32:14;25.42;;;22.25;;
37284;SDS011;23172;53.550;9.964;2023-02-16T23:37:15;28.05;;;25.05;;
37284;SDS011;23172;53.550;9.964;2023-02-16T23:42:19;25.52;;;22.30;;
37284;SDS011;23172;53.550;9.964;2023-02-16T23:47:20;19.98;;;17.88;;
37284;SDS011;23172;53.550;9.964;2023-02-16T23:52:22;27.30;;;24.35;;
37284;SDS011;23172;53.550;9.964;2023-02-16T23:57:26;27.10;;;24.15;;
